createdAt,value
2023-11-07T00:00:32.401Z,9.70
2023-11-07T00:01:32.364Z,9.70
2023-11-07T00:02:32.459Z,9.69
2023-11-07T00:03:32.458Z,9.67
2023-11-07T00:04:32.411Z,9.67
2023-11-07T00:05:32.433Z,9.67
2023-11-07T00:06:32.336Z,9.67
2023-11-07T00:07:32.304Z,9.66
2023-11-07T00:08:32.351Z,9.63
2023-11-07T00:09:32.317Z,9.64
2023-11-07T00:10:32.310Z,9.62
2023-11-07T00:11:32.306Z,9.63
2023-11-07T00:12:32.225Z,9.64
2023-11-07T00:13:32.227Z,9.66
2023-11-07T00:14:32.247Z,9.64
2023-11-07T00:15:32.221Z,9.66
2023-11-07T00:16:32.167Z,9.64
2023-11-07T00:17:32.343Z,9.64
2023-11-07T00:18:32.409Z,9.63
2023-11-07T00:19:32.177Z,9.64
2023-11-07T00:20:32.164Z,9.63
2023-11-07T00:21:32.187Z,9.66
2023-11-07T00:22:32.113Z,9.66
2023-11-07T00:23:32.198Z,9.67
2023-11-07T00:24:32.180Z,9.67
2023-11-07T00:25:32.122Z,9.69
2023-11-07T00:26:32.148Z,9.69
2023-11-07T00:27:32.130Z,9.67
2023-11-07T00:28:32.042Z,9.67
2023-11-07T00:29:32.078Z,9.66
2023-11-07T00:30:32.036Z,9.66
2023-11-07T00:31:32.079Z,9.66
2023-11-07T00:32:32.307Z,9.69
2023-11-07T00:33:32.202Z,9.67
2023-11-07T00:34:32.171Z,9.66
2023-11-07T00:35:32.041Z,9.66
2023-11-07T00:36:31.972Z,9.67
2023-11-07T00:37:32.024Z,9.67
2023-11-07T00:38:32.574Z,9.67
2023-11-07T00:39:31.966Z,9.69
2023-11-07T00:40:31.990Z,9.69
2023-11-07T00:41:31.982Z,9.67
2023-11-07T00:42:32.181Z,9.66
2023-11-07T00:43:31.896Z,9.67
2023-11-07T00:44:32.008Z,9.70
2023-11-07T00:45:31.920Z,9.69
2023-11-07T00:46:31.877Z,9.69
2023-11-07T00:47:32.023Z,9.70
2023-11-07T00:48:32.061Z,9.70
2023-11-07T00:49:31.844Z,9.70
2023-11-07T00:50:31.844Z,9.66
2023-11-07T00:51:32.127Z,9.66
2023-11-07T00:52:31.809Z,9.66
2023-11-07T00:53:31.932Z,9.66
2023-11-07T00:54:31.780Z,9.66
2023-11-07T00:55:31.851Z,9.67
2023-11-07T00:56:31.778Z,9.67
2023-11-07T00:57:31.756Z,9.64
2023-11-07T00:58:31.782Z,9.66
2023-11-07T00:59:31.773Z,9.66
2023-11-07T01:00:31.760Z,9.69
2023-11-07T01:01:31.736Z,9.66
2023-11-07T01:02:31.781Z,9.66
2023-11-07T01:03:31.790Z,9.67
2023-11-07T01:04:31.825Z,9.66
2023-11-07T01:05:31.848Z,9.67
2023-11-07T01:06:31.752Z,9.66
2023-11-07T01:07:31.637Z,9.69
2023-11-07T01:08:31.805Z,9.64
2023-11-07T01:09:31.643Z,9.66
2023-11-07T01:10:31.624Z,9.66
2023-11-07T01:11:31.679Z,9.67
2023-11-07T01:12:31.586Z,9.64
2023-11-07T01:13:31.634Z,9.67
2023-11-07T01:14:31.661Z,9.69
2023-11-07T01:15:31.579Z,9.67
2023-11-07T01:16:31.706Z,9.66
2023-11-07T01:17:31.718Z,9.69
2023-11-07T01:18:31.702Z,9.67
2023-11-07T01:19:31.604Z,9.67
2023-11-07T01:20:31.586Z,9.67
2023-11-07T01:21:31.514Z,9.69
2023-11-07T01:22:31.480Z,9.67
2023-11-07T01:23:31.556Z,9.70
2023-11-07T01:24:31.523Z,9.66
2023-11-07T01:25:31.681Z,9.69
2023-11-07T01:26:31.609Z,9.66
2023-11-07T01:27:31.458Z,9.66
2023-11-07T01:28:31.465Z,9.67
2023-11-07T01:29:31.503Z,9.69
2023-11-07T01:30:31.466Z,9.64
2023-11-07T01:31:31.464Z,9.66
2023-11-07T01:32:31.473Z,9.69
2023-11-07T01:33:31.539Z,9.69
2023-11-07T01:34:31.394Z,9.69
2023-11-07T01:35:31.548Z,9.69
2023-11-07T01:36:31.440Z,9.67
2023-11-07T01:37:31.397Z,9.69
2023-11-07T01:38:31.417Z,9.72
2023-11-07T01:39:31.334Z,9.70
2023-11-07T01:40:31.447Z,9.72
2023-11-07T01:41:31.340Z,9.72
2023-11-07T01:42:31.357Z,9.72
2023-11-07T01:43:31.273Z,9.74
2023-11-07T01:44:31.353Z,9.70
2023-11-07T01:45:31.274Z,9.72
2023-11-07T01:46:31.275Z,9.70
2023-11-07T01:47:31.352Z,9.72
2023-11-07T01:48:31.390Z,9.73
2023-11-07T01:49:31.293Z,9.73
2023-11-07T01:50:31.324Z,9.77
2023-11-07T01:51:31.297Z,9.76
2023-11-07T01:52:31.193Z,9.74
2023-11-07T01:53:31.222Z,9.76
2023-11-07T01:54:31.190Z,9.76
2023-11-07T01:55:31.178Z,9.74
2023-11-07T01:56:31.167Z,9.74
2023-11-07T01:57:31.159Z,9.74
2023-11-07T01:58:31.180Z,9.74
2023-11-07T01:59:31.165Z,9.73
2023-11-07T02:00:31.115Z,9.74
2023-11-07T02:01:32.970Z,9.74
2023-11-07T02:02:31.143Z,9.72
2023-11-07T02:03:31.248Z,9.74
2023-11-07T02:04:31.214Z,9.73
2023-11-07T02:05:31.077Z,9.73
2023-11-07T02:06:31.116Z,9.73
2023-11-07T02:07:31.091Z,9.73
2023-11-07T02:08:31.099Z,9.70
2023-11-07T02:09:30.978Z,9.73
2023-11-07T02:10:31.019Z,9.70
2023-11-07T02:11:31.112Z,9.70
2023-11-07T02:12:30.980Z,9.70
2023-11-07T02:13:31.642Z,9.70
2023-11-07T02:14:31.137Z,9.70
2023-11-07T02:15:30.969Z,9.70
2023-11-07T02:16:31.048Z,9.70
2023-11-07T02:17:31.411Z,9.73
2023-11-07T02:18:30.959Z,9.72
2023-11-07T02:19:31.041Z,9.70
2023-11-07T02:20:30.888Z,9.72
2023-11-07T02:21:30.988Z,9.72
2023-11-07T02:22:30.882Z,9.72
2023-11-07T02:23:30.927Z,9.74
2023-11-07T02:24:30.965Z,9.72
2023-11-07T02:25:30.903Z,9.72
2023-11-07T02:26:30.822Z,9.72
2023-11-07T02:27:30.908Z,9.73
2023-11-07T02:28:30.825Z,9.74
2023-11-07T02:29:30.798Z,9.72
2023-11-07T02:30:30.835Z,9.73
2023-11-07T02:31:30.812Z,9.70
2023-11-07T02:32:30.810Z,9.72
2023-11-07T02:33:30.879Z,9.70
2023-11-07T02:34:30.735Z,9.70
2023-11-07T02:35:30.786Z,9.72
2023-11-07T02:36:30.753Z,9.72
2023-11-07T02:37:30.803Z,9.72
2023-11-07T02:38:30.732Z,9.69
2023-11-07T02:39:30.723Z,9.70
2023-11-07T02:40:30.693Z,9.67
2023-11-07T02:41:30.683Z,9.67
2023-11-07T02:42:30.660Z,9.67
2023-11-07T02:43:30.709Z,9.69
2023-11-07T02:44:30.887Z,9.69
2023-11-07T02:45:30.614Z,9.70
2023-11-07T02:46:30.634Z,9.69
2023-11-07T02:47:30.677Z,9.69
2023-11-07T02:48:30.748Z,9.70
2023-11-07T02:49:31.636Z,9.67
2023-11-07T02:50:30.603Z,9.67
2023-11-07T02:51:30.600Z,9.67
2023-11-07T02:52:30.578Z,9.70
2023-11-07T02:53:30.571Z,9.69
2023-11-07T02:54:30.576Z,9.70
2023-11-07T02:55:30.551Z,9.69
2023-11-07T02:56:30.721Z,9.69
2023-11-07T02:57:30.523Z,9.67
2023-11-07T02:58:30.503Z,9.69
2023-11-07T02:59:30.543Z,9.70
2023-11-07T03:00:30.518Z,9.67
2023-11-07T03:01:30.446Z,9.67
2023-11-07T03:02:30.541Z,9.69
2023-11-07T03:03:30.588Z,9.70
2023-11-07T03:04:30.532Z,9.67
2023-11-07T03:05:30.581Z,9.67
2023-11-07T03:06:30.509Z,9.67
2023-11-07T03:07:30.405Z,9.67
2023-11-07T03:08:30.480Z,9.64
2023-11-07T03:09:30.363Z,9.67
2023-11-07T03:10:30.437Z,9.66
2023-11-07T03:11:30.362Z,9.64
2023-11-07T03:12:30.408Z,9.64
2023-11-07T03:13:30.407Z,9.66
2023-11-07T03:14:30.377Z,9.64
2023-11-07T03:15:30.283Z,9.67
2023-11-07T03:16:30.284Z,9.66
2023-11-07T03:17:30.320Z,9.66
2023-11-07T03:18:30.319Z,9.64
2023-11-07T03:19:30.244Z,9.67
2023-11-07T03:20:30.317Z,9.67
2023-11-07T03:21:30.298Z,9.64
2023-11-07T03:22:30.332Z,9.66
2023-11-07T03:23:30.285Z,9.64
2023-11-07T03:24:30.251Z,9.64
2023-11-07T03:25:30.193Z,9.66
2023-11-07T03:26:30.194Z,9.67
2023-11-07T03:27:30.209Z,9.69
2023-11-07T03:28:30.265Z,9.69
2023-11-07T03:29:30.181Z,9.69
2023-11-07T03:30:30.241Z,9.67
2023-11-07T03:31:30.132Z,9.69
2023-11-07T03:32:30.179Z,9.69
2023-11-07T03:33:30.279Z,9.69
2023-11-07T03:34:30.170Z,9.69
2023-11-07T03:35:30.099Z,9.69
2023-11-07T03:36:30.084Z,9.72
2023-11-07T03:37:30.072Z,9.72
2023-11-07T03:38:30.115Z,9.69
2023-11-07T03:39:30.048Z,9.70
2023-11-07T03:40:30.049Z,9.70
2023-11-07T03:41:29.981Z,9.72
2023-11-07T03:42:30.010Z,9.73
2023-11-07T03:43:30.063Z,9.73
2023-11-07T03:44:30.024Z,9.73
2023-11-07T03:45:29.976Z,9.77
2023-11-07T03:46:30.066Z,9.74
2023-11-07T03:47:29.964Z,9.74
2023-11-07T03:48:30.076Z,9.74
2023-11-07T03:49:29.986Z,9.74
2023-11-07T03:50:29.951Z,9.76
2023-11-07T03:51:29.882Z,9.76
2023-11-07T03:52:29.916Z,9.80
2023-11-07T03:53:29.923Z,9.77
2023-11-07T03:54:29.903Z,9.81
2023-11-07T03:55:30.018Z,9.84
2023-11-07T03:56:29.883Z,9.82
2023-11-07T03:57:29.867Z,9.84
2023-11-07T03:58:29.871Z,9.82
2023-11-07T03:59:29.832Z,9.87
2023-11-07T04:00:29.800Z,9.87
2023-11-07T04:01:29.803Z,9.87
2023-11-07T04:02:30.723Z,9.87
2023-11-07T04:03:29.872Z,9.90
2023-11-07T04:04:29.816Z,9.90
2023-11-07T04:05:29.782Z,9.90
2023-11-07T04:06:29.820Z,9.85
2023-11-07T04:07:29.789Z,9.88
2023-11-07T04:08:29.812Z,9.88
2023-11-07T04:09:29.744Z,9.91
2023-11-07T04:10:29.735Z,9.90
2023-11-07T04:11:29.712Z,9.90
2023-11-07T04:12:29.725Z,9.91
2023-11-07T04:13:29.670Z,9.92
2023-11-07T04:14:29.703Z,9.91
2023-11-07T04:15:29.753Z,9.91
2023-11-07T04:16:29.703Z,9.91
2023-11-07T04:17:29.694Z,9.92
2023-11-07T04:18:29.767Z,9.92
2023-11-07T04:19:29.675Z,9.92
2023-11-07T04:20:29.659Z,9.92
2023-11-07T04:21:29.623Z,9.94
2023-11-07T04:22:29.655Z,9.92
2023-11-07T04:23:29.584Z,9.94
2023-11-07T04:24:29.575Z,9.92
2023-11-07T04:25:29.555Z,9.95
2023-11-07T04:26:29.547Z,9.92
2023-11-07T04:27:29.563Z,9.94
2023-11-07T04:28:29.520Z,9.94
2023-11-07T04:29:29.482Z,9.95
2023-11-07T04:30:29.645Z,9.94
2023-11-07T04:31:29.503Z,9.94
2023-11-07T04:32:29.501Z,9.94
2023-11-07T04:33:29.583Z,9.97
2023-11-07T04:34:29.491Z,9.97
2023-11-07T04:35:29.508Z,10.00
2023-11-07T04:36:29.427Z,9.99
2023-11-07T04:37:29.460Z,10.00
2023-11-07T04:38:29.450Z,10.02
2023-11-07T04:39:29.471Z,10.03
2023-11-07T04:40:29.383Z,10.03
2023-11-07T04:41:29.360Z,10.03
2023-11-07T04:42:29.544Z,10.05
2023-11-07T04:43:29.374Z,10.07
2023-11-07T04:44:29.371Z,10.07
2023-11-07T04:45:29.335Z,10.07
2023-11-07T04:46:29.369Z,10.09
2023-11-07T04:47:29.348Z,10.12
2023-11-07T04:48:29.448Z,10.10
2023-11-07T04:49:29.483Z,10.10
2023-11-07T04:50:29.408Z,10.12
2023-11-07T04:51:29.359Z,10.13
2023-11-07T04:52:29.406Z,10.13
2023-11-07T04:53:29.389Z,10.15
2023-11-07T04:54:29.275Z,10.17
2023-11-07T04:55:29.251Z,10.18
2023-11-07T04:56:29.210Z,10.18
2023-11-07T04:57:29.250Z,10.21
2023-11-07T04:58:29.247Z,10.21
2023-11-07T04:59:29.199Z,10.21
2023-11-07T05:00:29.256Z,10.21
2023-11-07T05:01:29.167Z,10.24
2023-11-07T05:02:29.175Z,10.21
2023-11-07T05:03:35.940Z,10.27
2023-11-07T05:04:30.249Z,10.27
2023-11-07T05:05:29.158Z,10.28
2023-11-07T05:06:29.300Z,10.28
2023-11-07T05:07:29.221Z,10.31
2023-11-07T05:08:29.173Z,10.28
2023-11-07T05:09:29.098Z,10.30
2023-11-07T05:10:29.211Z,10.31
2023-11-07T05:11:29.089Z,10.33
2023-11-07T05:12:29.115Z,10.34
2023-11-07T05:13:29.207Z,10.34
2023-11-07T05:14:29.171Z,10.36
2023-11-07T05:15:29.589Z,10.36
2023-11-07T05:16:29.056Z,10.38
2023-11-07T05:17:29.046Z,10.38
2023-11-07T05:18:29.194Z,10.38
2023-11-07T05:19:29.027Z,10.39
2023-11-07T05:20:29.011Z,10.41
2023-11-07T05:21:29.064Z,10.41
2023-11-07T05:22:28.959Z,10.43
2023-11-07T05:23:28.992Z,10.46
2023-11-07T05:24:28.919Z,10.45
2023-11-07T05:25:28.907Z,10.46
2023-11-07T05:26:28.935Z,10.45
2023-11-07T05:27:28.988Z,10.46
2023-11-07T05:28:29.164Z,10.48
2023-11-07T05:29:29.404Z,10.49
2023-11-07T05:30:30.357Z,10.46
2023-11-07T05:31:28.844Z,10.46
2023-11-07T05:32:29.036Z,10.49
2023-11-07T05:33:28.931Z,10.49
2023-11-07T05:34:28.937Z,10.48
2023-11-07T05:35:29.735Z,10.48
2023-11-07T05:36:28.838Z,10.51
2023-11-07T05:37:28.842Z,10.51
2023-11-07T05:38:28.828Z,10.53
2023-11-07T05:39:28.977Z,10.53
2023-11-07T05:40:28.801Z,10.46
2023-11-07T05:41:28.741Z,10.53
2023-11-07T05:42:28.967Z,10.48
2023-11-07T05:43:28.775Z,10.46
2023-11-07T05:44:28.830Z,10.49
2023-11-07T05:45:28.715Z,10.49
2023-11-07T05:46:28.703Z,10.48
2023-11-07T05:47:28.806Z,10.48
2023-11-07T05:48:28.925Z,10.48
2023-11-07T05:49:28.757Z,10.48
2023-11-07T05:50:28.696Z,10.48
2023-11-07T05:51:28.637Z,10.48
2023-11-07T05:52:28.636Z,10.43
2023-11-07T05:53:28.641Z,10.41
2023-11-07T05:54:28.641Z,10.39
2023-11-07T05:55:28.658Z,10.41
2023-11-07T05:56:28.720Z,10.42
2023-11-07T05:57:28.659Z,10.41
2023-11-07T05:58:28.620Z,10.41
2023-11-07T05:59:28.561Z,10.36
2023-11-07T06:00:28.547Z,10.36
2023-11-07T06:01:28.528Z,10.36
2023-11-07T06:02:28.653Z,10.34
2023-11-07T06:03:28.584Z,10.36
2023-11-07T06:04:29.436Z,10.34
2023-11-07T06:05:28.505Z,10.36
2023-11-07T06:06:28.486Z,10.36
2023-11-07T06:07:28.422Z,10.34
2023-11-07T06:08:28.592Z,10.34
2023-11-07T06:09:28.428Z,10.36
2023-11-07T06:10:28.475Z,10.31
2023-11-07T06:11:28.456Z,10.34
2023-11-07T06:12:28.443Z,10.33
2023-11-07T06:13:28.449Z,10.33
2023-11-07T06:14:28.392Z,10.31
2023-11-07T06:15:28.373Z,10.31
2023-11-07T06:16:28.399Z,10.33
2023-11-07T06:17:28.377Z,10.31
2023-11-07T06:18:28.410Z,10.30
2023-11-07T06:19:28.358Z,10.33
2023-11-07T06:20:28.339Z,10.28
2023-11-07T06:21:30.141Z,10.31
2023-11-07T06:22:28.397Z,10.31
2023-11-07T06:23:28.330Z,10.34
2023-11-07T06:24:28.272Z,10.31
2023-11-07T06:25:28.269Z,10.33
2023-11-07T06:26:28.273Z,10.34
2023-11-07T06:27:28.229Z,10.36
2023-11-07T06:28:28.287Z,10.36
2023-11-07T06:29:28.211Z,10.38
2023-11-07T06:30:28.356Z,10.38
2023-11-07T06:31:28.292Z,10.39
2023-11-07T06:32:28.246Z,10.38
2023-11-07T06:33:28.386Z,10.41
2023-11-07T06:34:28.294Z,10.41
2023-11-07T06:35:28.168Z,10.41
2023-11-07T06:36:28.139Z,10.41
2023-11-07T06:37:28.216Z,10.39
2023-11-07T06:38:28.152Z,10.41
2023-11-07T06:39:28.162Z,10.42
2023-11-07T06:40:28.113Z,10.42
2023-11-07T06:41:28.285Z,10.45
2023-11-07T06:42:28.141Z,10.46
2023-11-07T06:43:28.109Z,10.48
2023-11-07T06:44:28.082Z,10.48
2023-11-07T06:45:28.036Z,10.49
2023-11-07T06:46:28.031Z,10.48
2023-11-07T06:47:28.084Z,10.53
2023-11-07T06:48:28.256Z,10.55
2023-11-07T06:49:28.324Z,10.53
2023-11-07T06:50:28.059Z,10.55
2023-11-07T06:51:27.985Z,10.55
2023-11-07T06:52:27.954Z,10.55
2023-11-07T06:53:27.934Z,10.53
2023-11-07T06:54:28.023Z,10.57
2023-11-07T06:55:27.932Z,10.55
2023-11-07T06:56:28.649Z,10.57
2023-11-07T06:57:28.058Z,10.58
2023-11-07T06:58:27.964Z,10.58
2023-11-07T06:59:28.045Z,10.62
2023-11-07T07:00:27.896Z,10.61
2023-11-07T07:01:27.941Z,10.62
2023-11-07T07:02:27.929Z,10.65
2023-11-07T07:03:28.233Z,10.64
2023-11-07T07:04:27.949Z,10.65
2023-11-07T07:05:27.970Z,10.67
2023-11-07T07:06:27.842Z,10.65
2023-11-07T07:07:27.795Z,10.69
2023-11-07T07:08:27.836Z,10.68
2023-11-07T07:09:27.792Z,10.69
2023-11-07T07:10:27.824Z,10.69
2023-11-07T07:11:27.763Z,10.69
2023-11-07T07:12:27.811Z,10.72
2023-11-07T07:13:27.773Z,10.76
2023-11-07T07:14:27.764Z,10.77
2023-11-07T07:15:27.770Z,10.83
2023-11-07T07:16:27.762Z,10.82
2023-11-07T07:17:27.788Z,10.87
2023-11-07T07:18:27.728Z,10.94
2023-11-07T07:19:27.752Z,10.95
2023-11-07T07:20:27.702Z,10.95
2023-11-07T07:21:27.670Z,11.04
2023-11-07T07:22:27.717Z,11.07
2023-11-07T07:23:27.640Z,11.10
2023-11-07T07:24:27.637Z,11.12
2023-11-07T07:25:27.808Z,11.18
2023-11-07T07:26:27.594Z,11.22
2023-11-07T07:27:27.566Z,11.27
2023-11-07T07:28:27.570Z,11.31
2023-11-07T07:29:28.334Z,11.30
2023-11-07T07:30:27.872Z,11.35
2023-11-07T07:31:27.609Z,11.37
2023-11-07T07:32:27.578Z,11.38
2023-11-07T07:33:27.650Z,11.41
2023-11-07T07:34:27.664Z,11.44
2023-11-07T07:35:27.587Z,11.48
2023-11-07T07:36:27.535Z,11.49
2023-11-07T07:37:27.517Z,11.52
2023-11-07T07:38:27.569Z,11.53
2023-11-07T07:39:27.597Z,11.56
2023-11-07T07:40:28.180Z,11.55
2023-11-07T07:41:27.491Z,11.59
2023-11-07T07:42:27.434Z,11.59
2023-11-07T07:43:28.018Z,11.58
2023-11-07T07:44:27.459Z,11.59
2023-11-07T07:45:27.662Z,11.65
2023-11-07T07:46:27.386Z,11.67
2023-11-07T07:47:27.479Z,11.67
2023-11-07T07:48:27.461Z,11.68
2023-11-07T07:49:27.795Z,11.70
2023-11-07T07:50:27.352Z,11.71
2023-11-07T07:51:27.296Z,11.71
2023-11-07T07:52:27.761Z,11.74
2023-11-07T07:53:27.298Z,11.80
2023-11-07T07:54:43.766Z,11.81
2023-11-07T07:55:33.576Z,11.85
2023-11-07T07:56:28.274Z,11.89
2023-11-07T07:57:27.380Z,11.95
2023-11-07T07:58:27.258Z,11.97
2023-11-07T07:59:27.285Z,12.08
2023-11-07T08:00:27.305Z,12.11
2023-11-07T08:01:27.240Z,12.14
2023-11-07T08:02:27.326Z,12.20
2023-11-07T08:03:27.481Z,12.23
2023-11-07T08:04:27.185Z,12.26
2023-11-07T08:05:27.230Z,12.30
2023-11-07T08:06:27.187Z,12.35
2023-11-07T08:07:27.148Z,12.39
2023-11-07T08:08:27.186Z,12.44
2023-11-07T08:09:27.338Z,12.45
2023-11-07T08:10:27.154Z,12.50
2023-11-07T08:11:27.833Z,12.54
2023-11-07T08:12:27.090Z,12.58
2023-11-07T08:13:27.132Z,12.65
2023-11-07T08:14:27.102Z,12.70
2023-11-07T08:15:27.070Z,12.76
2023-11-07T08:16:27.079Z,12.83
2023-11-07T08:17:27.081Z,12.88
2023-11-07T08:18:27.237Z,12.90
2023-11-07T08:19:27.066Z,12.93
2023-11-07T08:20:27.001Z,13.01
2023-11-07T08:21:27.160Z,13.05
2023-11-07T08:22:27.073Z,13.11
2023-11-07T08:23:27.062Z,13.16
2023-11-07T08:24:27.064Z,13.20
2023-11-07T08:25:26.981Z,13.24
2023-11-07T08:26:26.970Z,13.26
2023-11-07T08:27:28.562Z,13.31
2023-11-07T08:28:27.022Z,13.30
2023-11-07T08:29:26.986Z,13.31
2023-11-07T08:30:26.984Z,13.36
2023-11-07T08:31:26.901Z,13.39
2023-11-07T08:32:26.937Z,13.39
2023-11-07T08:33:27.064Z,13.42
2023-11-07T08:34:27.004Z,13.43
2023-11-07T08:35:26.897Z,13.46
2023-11-07T08:36:26.891Z,13.47
2023-11-07T08:37:26.845Z,13.50
2023-11-07T08:38:26.840Z,13.55
2023-11-07T08:39:26.938Z,13.57
2023-11-07T08:40:26.821Z,13.57
2023-11-07T08:41:26.835Z,13.60
2023-11-07T08:42:26.835Z,13.58
2023-11-07T08:43:27.023Z,13.57
2023-11-07T08:44:26.819Z,13.60
2023-11-07T08:45:26.911Z,13.57
2023-11-07T08:46:28.783Z,13.54
2023-11-07T08:47:26.775Z,13.50
2023-11-07T08:48:27.270Z,13.50
2023-11-07T08:49:26.799Z,13.52
2023-11-07T08:50:26.673Z,13.50
2023-11-07T08:51:26.727Z,13.50
2023-11-07T08:52:26.706Z,13.49
2023-11-07T08:53:26.663Z,13.50
2023-11-07T08:54:26.698Z,13.46
2023-11-07T08:55:26.789Z,13.49
2023-11-07T08:56:26.643Z,13.50
2023-11-07T08:57:26.587Z,13.49
2023-11-07T08:58:26.601Z,13.50
2023-11-07T08:59:26.583Z,13.50
2023-11-07T09:00:26.599Z,13.49
2023-11-07T09:01:26.589Z,13.49
2023-11-07T09:02:26.580Z,13.45
2023-11-07T09:03:26.765Z,13.45
2023-11-07T09:04:26.511Z,13.43
2023-11-07T09:05:26.556Z,13.45
2023-11-07T09:06:26.578Z,13.42
2023-11-07T09:07:26.627Z,13.43
2023-11-07T09:08:26.460Z,13.42
2023-11-07T09:09:26.445Z,13.40
2023-11-07T09:10:26.572Z,13.37
2023-11-07T09:11:26.549Z,13.42
2023-11-07T09:12:26.434Z,13.47
2023-11-07T09:13:26.416Z,13.54
2023-11-07T09:14:26.444Z,13.61
2023-11-07T09:15:26.543Z,13.67
2023-11-07T09:16:26.386Z,13.71
2023-11-07T09:17:26.389Z,13.75
2023-11-07T09:18:26.478Z,13.75
2023-11-07T09:19:26.450Z,13.70
2023-11-07T09:20:26.395Z,13.70
2023-11-07T09:21:26.449Z,13.70
2023-11-07T09:22:26.467Z,13.75
2023-11-07T09:23:26.465Z,13.76
2023-11-07T09:24:26.298Z,13.78
2023-11-07T09:25:26.582Z,13.82
2023-11-07T09:26:26.284Z,13.83
2023-11-07T09:27:26.291Z,13.86
2023-11-07T09:28:26.303Z,13.91
2023-11-07T09:29:26.220Z,13.93
2023-11-07T09:30:26.310Z,13.93
2023-11-07T09:31:26.281Z,13.95
2023-11-07T09:32:26.286Z,13.97
2023-11-07T09:33:26.291Z,13.98
2023-11-07T09:34:26.399Z,13.98
2023-11-07T09:35:26.288Z,14.01
2023-11-07T09:36:26.757Z,14.04
2023-11-07T09:37:26.189Z,14.04
2023-11-07T09:38:28.145Z,14.07
2023-11-07T09:39:26.182Z,14.18
2023-11-07T09:40:26.869Z,14.25
2023-11-07T09:41:26.262Z,14.30
2023-11-07T09:42:26.179Z,14.31
2023-11-07T09:43:26.141Z,14.33
2023-11-07T09:44:26.170Z,14.28
2023-11-07T09:45:26.155Z,14.26
2023-11-07T09:46:26.186Z,14.19
2023-11-07T09:47:26.116Z,14.13
2023-11-07T09:48:26.159Z,14.08
2023-11-07T09:49:26.104Z,14.03
2023-11-07T09:50:26.046Z,13.98
2023-11-07T09:51:26.108Z,13.93
2023-11-07T09:52:26.013Z,13.86
2023-11-07T09:53:26.024Z,13.83
2023-11-07T09:54:26.194Z,13.76
2023-11-07T09:55:26.077Z,13.71
2023-11-07T09:56:26.010Z,13.67
2023-11-07T09:57:26.004Z,13.61
2023-11-07T09:58:25.930Z,13.57
2023-11-07T09:59:26.076Z,13.55
2023-11-07T10:00:25.958Z,13.52
2023-11-07T10:01:25.915Z,13.47
2023-11-07T10:02:25.875Z,13.45
2023-11-07T10:03:25.992Z,13.43
2023-11-07T10:04:26.104Z,13.42
2023-11-07T10:05:25.870Z,13.40
2023-11-07T10:06:25.898Z,13.33
2023-11-07T10:07:27.524Z,13.36
2023-11-07T10:08:26.819Z,13.30
2023-11-07T10:09:25.849Z,13.31
2023-11-07T10:10:25.896Z,13.28
2023-11-07T10:11:25.784Z,13.28
2023-11-07T10:12:25.880Z,13.31
2023-11-07T10:13:25.774Z,13.27
2023-11-07T10:14:25.757Z,13.26
2023-11-07T10:15:26.264Z,13.23
2023-11-07T10:16:25.783Z,13.19
2023-11-07T10:17:25.924Z,13.17
2023-11-07T10:18:25.778Z,13.11
2023-11-07T10:19:25.778Z,13.12
2023-11-07T10:20:25.686Z,13.09
2023-11-07T10:21:25.674Z,13.09
2023-11-07T10:22:25.696Z,13.09
2023-11-07T10:23:25.682Z,13.11
2023-11-07T10:24:25.842Z,13.06
2023-11-07T10:25:25.636Z,13.08
2023-11-07T10:26:25.610Z,13.08
2023-11-07T10:27:25.696Z,13.11
2023-11-07T10:28:25.871Z,13.17
2023-11-07T10:29:25.883Z,13.27
2023-11-07T10:30:25.649Z,13.37
2023-11-07T10:31:25.543Z,13.47
2023-11-07T10:32:25.653Z,13.58
2023-11-07T10:33:25.685Z,13.65
2023-11-07T10:34:25.594Z,13.68
2023-11-07T10:35:25.532Z,13.73
2023-11-07T10:36:25.568Z,13.80
2023-11-07T10:37:25.544Z,13.83
2023-11-07T10:38:25.547Z,13.91
2023-11-07T10:39:25.516Z,13.98
2023-11-07T10:40:25.484Z,14.07
2023-11-07T10:41:25.500Z,14.22
2023-11-07T10:42:25.619Z,14.33
2023-11-07T10:43:25.461Z,14.40
2023-11-07T10:44:25.473Z,14.48
2023-11-07T10:45:25.462Z,14.53
2023-11-07T10:46:25.436Z,14.61
2023-11-07T10:47:25.433Z,14.62
2023-11-07T10:48:25.453Z,14.71
2023-11-07T10:49:25.567Z,14.79
2023-11-07T10:50:25.412Z,14.87
2023-11-07T10:51:25.409Z,14.99
2023-11-07T10:52:25.358Z,15.10
2023-11-07T10:53:25.327Z,15.19
2023-11-07T10:54:25.351Z,15.30
2023-11-07T10:55:25.340Z,15.37
2023-11-07T10:56:25.306Z,15.43
2023-11-07T10:57:25.377Z,15.57
2023-11-07T10:58:25.257Z,15.66
2023-11-07T10:59:25.347Z,15.78
2023-11-07T11:00:25.341Z,15.85
2023-11-07T11:01:25.314Z,15.90
2023-11-07T11:02:25.420Z,15.96
2023-11-07T11:03:25.356Z,15.94
2023-11-07T11:04:25.201Z,16.00
2023-11-07T11:05:25.240Z,16.03
2023-11-07T11:06:26.010Z,16.03
2023-11-07T11:07:25.250Z,16.03
2023-11-07T11:08:25.170Z,16.00
2023-11-07T11:09:25.259Z,16.10
2023-11-07T11:10:25.296Z,16.16
2023-11-07T11:11:26.438Z,16.22
2023-11-07T11:12:25.302Z,16.25
2023-11-07T11:13:25.141Z,16.28
2023-11-07T11:14:25.249Z,16.24
2023-11-07T11:15:25.213Z,16.10
2023-11-07T11:16:25.075Z,16.06
2023-11-07T11:17:25.123Z,16.03
2023-11-07T11:18:25.217Z,15.98
2023-11-07T11:19:25.571Z,15.91
2023-11-07T11:20:25.053Z,15.96
2023-11-07T11:21:25.052Z,16.05
2023-11-07T11:22:25.046Z,16.09
2023-11-07T11:23:24.995Z,16.10
2023-11-07T11:24:25.022Z,16.05
2023-11-07T11:25:25.046Z,16.10
2023-11-07T11:26:25.003Z,16.08
2023-11-07T11:27:25.006Z,16.08
2023-11-07T11:28:24.949Z,16.02
2023-11-07T11:29:24.958Z,15.96
2023-11-07T11:30:25.017Z,15.87
2023-11-07T11:31:24.904Z,15.76
2023-11-07T11:32:24.890Z,15.65
2023-11-07T11:33:25.005Z,15.65
2023-11-07T11:34:24.987Z,15.63
2023-11-07T11:35:24.842Z,15.75
2023-11-07T11:36:24.883Z,15.83
2023-11-07T11:37:24.807Z,15.94
2023-11-07T11:38:25.010Z,16.05
2023-11-07T11:39:24.872Z,16.09
2023-11-07T11:40:24.812Z,16.03
2023-11-07T11:41:24.779Z,16.05
2023-11-07T11:42:25.001Z,16.06
2023-11-07T11:43:24.808Z,16.16
2023-11-07T11:44:24.808Z,16.18
2023-11-07T11:45:37.252Z,16.17
2023-11-07T11:46:25.740Z,16.18
2023-11-07T11:47:24.811Z,16.24
2023-11-07T11:48:24.938Z,16.21
2023-11-07T11:49:24.786Z,16.24
2023-11-07T11:50:24.674Z,16.22
2023-11-07T11:51:24.680Z,16.21
2023-11-07T11:52:24.669Z,16.10
2023-11-07T11:53:24.715Z,16.03
2023-11-07T11:54:24.748Z,15.96
2023-11-07T11:55:24.623Z,15.90
2023-11-07T11:56:24.651Z,15.84
2023-11-07T11:57:24.658Z,15.81
2023-11-07T11:58:25.369Z,15.83
2023-11-07T11:59:24.627Z,15.80
2023-11-07T12:00:24.642Z,15.75
2023-11-07T12:01:25.515Z,15.81
2023-11-07T12:02:25.407Z,15.80
2023-11-07T12:03:24.740Z,15.80
2023-11-07T12:04:24.650Z,15.84
2023-11-07T12:05:24.598Z,15.84
2023-11-07T12:06:24.584Z,15.85
2023-11-07T12:07:24.643Z,15.91
2023-11-07T12:08:24.593Z,15.96
2023-11-07T12:09:24.547Z,15.98
2023-11-07T12:10:24.500Z,15.98
2023-11-07T12:11:32.770Z,15.94
2023-11-07T12:12:26.329Z,15.88
2023-11-07T12:13:24.419Z,15.85
2023-11-07T12:14:24.450Z,15.85
2023-11-07T12:15:24.442Z,15.94
2023-11-07T12:16:24.449Z,16.13
2023-11-07T12:17:24.437Z,16.57
2023-11-07T12:18:24.533Z,16.49
2023-11-07T12:19:24.488Z,16.46
2023-11-07T12:20:24.416Z,16.37
2023-11-07T12:21:24.488Z,16.31
2023-11-07T12:22:24.356Z,16.28
2023-11-07T12:23:24.310Z,16.34
2023-11-07T12:24:24.526Z,16.72
2023-11-07T12:25:24.381Z,17.19
2023-11-07T12:26:24.435Z,19.05
2023-11-07T12:27:24.343Z,20.68
2023-11-07T12:28:24.366Z,21.96
2023-11-07T12:29:24.247Z,23.02
2023-11-07T12:30:24.423Z,23.89
2023-11-07T12:31:26.018Z,24.47
2023-11-07T12:32:24.227Z,24.63
2023-11-07T12:33:24.298Z,24.81
2023-11-07T12:34:24.230Z,25.01
2023-11-07T12:35:24.212Z,25.09
2023-11-07T12:36:24.357Z,25.18
2023-11-07T12:37:24.198Z,25.30
2023-11-07T12:38:24.250Z,25.31
2023-11-07T12:39:24.225Z,25.30
2023-11-07T12:40:24.157Z,24.07
2023-11-07T12:41:24.156Z,23.79
2023-11-07T12:42:24.301Z,24.22
2023-11-07T12:43:24.106Z,23.36
2023-11-07T12:44:24.355Z,23.49
2023-11-07T12:45:24.184Z,22.33
2023-11-07T12:46:24.210Z,21.45
2023-11-07T12:47:24.132Z,21.15
2023-11-07T12:48:24.307Z,20.52
2023-11-07T12:49:24.118Z,19.96
2023-11-07T12:50:24.025Z,19.55
2023-11-07T12:51:24.052Z,19.71
2023-11-07T12:52:23.998Z,19.30
2023-11-07T12:53:24.107Z,20.32
2023-11-07T12:54:24.106Z,19.87
2023-11-07T12:55:23.953Z,19.47
2023-11-07T12:56:24.002Z,19.20
2023-11-07T12:57:24.056Z,20.24
2023-11-07T12:58:24.006Z,19.82
2023-11-07T12:59:23.913Z,19.48
2023-11-07T13:00:23.918Z,19.78
2023-11-07T13:01:23.950Z,19.75